sensor_id;sensor_type;location;lat;lon;timestamp;pressure;altitude;pressure_sealevel;temperature;humidity
39487;BME280;25173;50.430;18.926;2023-02-03T00:00:47;98830.44;;;4.12;62.51
39487;BME280;25173;50.430;18.926;2023-02-03T00:03:47;98827.59;;;4.00;62.24
39487;BME280;25173;50.430;18.926;2023-02-03T00:06:48;98827.22;;;3.97;62.73
39487;BME280;25173;50.430;18.926;2023-02-03T00:09:50;98821.41;;;4.00;62.74
39487;BME280;25173;50.430;18.926;2023-02-03T00:12:51;98825.09;;;4.05;62.84
39487;BME280;25173;50.430;18.926;2023-02-03T00:15:55;98831.28;;;4.12;62.50
39487;BME280;25173;50.430;18.926;2023-02-03T00:18:56;98827.53;;;4.13;62.38
39487;BME280;25173;50.430;18.926;2023-02-03T00:21:56;98831.28;;;4.12;62.50
39487;BME280;25173;50.430;18.926;2023-02-03T00:24:57;98825.88;;;4.12;62.31
39487;BME280;25173;50.430;18.926;2023-02-03T00:27:58;98823.44;;;4.04;61.99
39487;BME280;25173;50.430;18.926;2023-02-03T00:30:58;98843.38;;;3.97;62.02
39487;BME280;25173;50.430;18.926;2023-02-03T00:33:59;98845.06;;;3.91;62.19
39487;BME280;25173;50.430;18.926;2023-02-03T00:36:59;98848.63;;;3.85;61.74
39487;BME280;25173;50.430;18.926;2023-02-03T00:40:00;98844.53;;;3.76;61.53
39487;BME280;25173;50.430;18.926;2023-02-03T00:43:01;98851.56;;;3.77;61.93
39487;BME280;25173;50.430;18.926;2023-02-03T00:46:01;98849.13;;;3.62;61.52
39487;BME280;25173;50.430;18.926;2023-02-03T00:49:03;98849.53;;;3.59;62.19
39487;BME280;25173;50.430;18.926;2023-02-03T00:52:04;98855.09;;;3.71;62.32
39487;BME280;25173;50.430;18.926;2023-02-03T00:55:05;98848.06;;;3.70;61.74
39487;BME280;25173;50.430;18.926;2023-02-03T00:58:06;98837.44;;;3.81;62.04
39487;BME280;25173;50.430;18.926;2023-02-03T01:01:07;98840.72;;;3.90;61.91
39487;BME280;25173;50.430;18.926;2023-02-03T01:04:08;98842.97;;;3.93;61.72
39487;BME280;25173;50.430;18.926;2023-02-03T01:07:09;98845.09;;;3.84;60.97
39487;BME280;25173;50.430;18.926;2023-02-03T01:10:10;98833.53;;;3.71;61.41
39487;BME280;25173;50.430;18.926;2023-02-03T01:13:10;98826.72;;;3.68;61.05
39487;BME280;25173;50.430;18.926;2023-02-03T01:16:14;98834.63;;;3.57;61.19
39487;BME280;25173;50.430;18.926;2023-02-03T01:19:15;98835.44;;;3.64;61.33
39487;BME280;25173;50.430;18.926;2023-02-03T01:22:16;98830.03;;;3.64;61.14
39487;BME280;25173;50.430;18.926;2023-02-03T01:25:17;98823.41;;;3.66;61.33
39487;BME280;25173;50.430;18.926;2023-02-03T01:28:17;98831.13;;;3.63;60.92
39487;BME280;25173;50.430;18.926;2023-02-03T01:31:22;98829.88;;;3.59;61.14
39487;BME280;25173;50.430;18.926;2023-02-03T01:34:23;98824.94;;;3.56;61.08
39487;BME280;25173;50.430;18.926;2023-02-03T01:37:24;98830.78;;;3.39;60.54
39487;BME280;25173;50.430;18.926;2023-02-03T01:40:24;98824.81;;;3.24;60.92
39487;BME280;25173;50.430;18.926;2023-02-03T01:43:33;98822.72;;;3.26;61.28
39487;BME280;25173;50.430;18.926;2023-02-03T01:46:43;98817.06;;;3.41;61.71
39487;BME280;25173;50.430;18.926;2023-02-03T01:49:57;98817.47;;;3.51;60.97
39487;BME280;25173;50.430;18.926;2023-02-03T01:53:09;98808.97;;;3.54;60.97
39487;BME280;25173;50.430;18.926;2023-02-03T01:56:11;98814.97;;;3.49;60.63
39487;BME280;25173;50.430;18.926;2023-02-03T01:59:15;98815.63;;;3.45;60.67
39487;BME280;25173;50.430;18.926;2023-02-03T02:02:17;98818.72;;;3.48;60.70
39487;BME280;25173;50.430;18.926;2023-02-03T02:08:37;98813.16;;;3.37;60.23
39487;BME280;25173;50.430;18.926;2023-02-03T02:11:39;98812.56;;;3.28;60.14
39487;BME280;25173;50.430;18.926;2023-02-03T02:14:43;98805.13;;;3.24;60.62
39487;BME280;25173;50.430;18.926;2023-02-03T02:18:10;98799.94;;;3.29;60.75
39487;BME280;25173;50.430;18.926;2023-02-03T02:41:09;98760.28;;;3.49;61.23
39487;BME280;25173;50.430;18.926;2023-02-03T02:44:48;98758.56;;;3.68;60.90
39487;BME280;25173;50.430;18.926;2023-02-03T02:47:55;98747.53;;;3.76;60.81
39487;BME280;25173;50.430;18.926;2023-02-03T02:51:02;98743.81;;;3.77;60.85
39487;BME280;25173;50.430;18.926;2023-02-03T02:54:07;98739.63;;;3.81;60.62
39487;BME280;25173;50.430;18.926;2023-02-03T02:57:10;98755.97;;;3.86;60.76
39487;BME280;25173;50.430;18.926;2023-02-03T03:00:13;98756.56;;;3.88;60.78
39487;BME280;25173;50.430;18.926;2023-02-03T03:03:19;98769.19;;;3.94;60.74
39487;BME280;25173;50.430;18.926;2023-02-03T03:06:32;98777.88;;;3.96;60.55
39487;BME280;25173;50.430;18.926;2023-02-03T03:09:41;98788.19;;;4.06;60.48
39487;BME280;25173;50.430;18.926;2023-02-03T03:12:46;98786.34;;;4.06;60.12
39487;BME280;25173;50.430;18.926;2023-02-03T03:15:49;98781.97;;;4.05;59.50
39487;BME280;25173;50.430;18.926;2023-02-03T03:19:08;98784.06;;;4.03;60.22
39487;BME280;25173;50.430;18.926;2023-02-03T03:22:12;98773.69;;;4.00;60.33
39487;BME280;25173;50.430;18.926;2023-02-03T03:25:17;98770.19;;;4.00;60.51
39487;BME280;25173;50.430;18.926;2023-02-03T03:28:31;98762.66;;;4.08;60.12
39487;BME280;25173;50.430;18.926;2023-02-03T03:31:33;98757.88;;;4.10;60.23
39487;BME280;25173;50.430;18.926;2023-02-03T03:34:34;98759.97;;;4.08;59.90
39487;BME280;25173;50.430;18.926;2023-02-03T03:37:44;98748.75;;;4.11;59.96
39487;BME280;25173;50.430;18.926;2023-02-03T03:40:53;98733.63;;;4.10;59.95
39487;BME280;25173;50.430;18.926;2023-02-03T03:44:01;98721.38;;;4.14;59.95
39487;BME280;25173;50.430;18.926;2023-02-03T03:47:15;98709.31;;;4.17;59.48
39487;BME280;25173;50.430;18.926;2023-02-03T03:50:21;98707.91;;;4.14;59.59
39487;BME280;25173;50.430;18.926;2023-02-03T03:53:26;98706.25;;;4.13;59.61
39487;BME280;25173;50.430;18.926;2023-02-03T03:56:32;98707.06;;;4.14;59.46
39487;BME280;25173;50.430;18.926;2023-02-03T03:59:36;98709.97;;;4.12;59.46
39487;BME280;25173;50.430;18.926;2023-02-03T04:02:40;98712.28;;;4.09;59.58
39487;BME280;25173;50.430;18.926;2023-02-03T04:05:44;98707.28;;;4.12;59.64
39487;BME280;25173;50.430;18.926;2023-02-03T04:08:45;98701.69;;;4.14;59.58
39487;BME280;25173;50.430;18.926;2023-02-03T04:11:46;98709.78;;;4.14;59.59
39487;BME280;25173;50.430;18.926;2023-02-03T04:15:02;98696.09;;;4.09;59.56
39487;BME280;25173;50.430;18.926;2023-02-03T04:18:03;98699.41;;;4.11;59.53
39487;BME280;25173;50.430;18.926;2023-02-03T04:21:03;98692.59;;;4.08;59.39
39487;BME280;25173;50.430;18.926;2023-02-03T04:24:04;98690.34;;;4.05;59.44
39487;BME280;25173;50.430;18.926;2023-02-03T04:27:05;98682.88;;;4.07;59.50
39487;BME280;25173;50.430;18.926;2023-02-03T04:30:07;98681.81;;;4.08;59.43
39487;BME280;25173;50.430;18.926;2023-02-03T04:33:08;98683.91;;;4.06;59.48
39487;BME280;25173;50.430;18.926;2023-02-03T04:36:09;98680.00;;;4.02;59.55
39487;BME280;25173;50.430;18.926;2023-02-03T04:39:09;98677.50;;;4.01;59.62
39487;BME280;25173;50.430;18.926;2023-02-03T04:42:10;98670.88;;;4.03;59.54
39487;BME280;25173;50.430;18.926;2023-02-03T04:45:11;98663.41;;;4.05;59.43
39487;BME280;25173;50.430;18.926;2023-02-03T04:48:12;98666.09;;;4.05;59.45
39487;BME280;25173;50.430;18.926;2023-02-03T04:51:12;98662.78;;;4.03;59.35
39487;BME280;25173;50.430;18.926;2023-02-03T04:54:13;98662.16;;;4.01;59.43
39487;BME280;25173;50.430;18.926;2023-02-03T04:57:13;98664.03;;;4.01;59.55
39487;BME280;25173;50.430;18.926;2023-02-03T05:00:14;98650.34;;;4.02;59.45
39487;BME280;25173;50.430;18.926;2023-02-03T05:03:15;98640.41;;;4.03;59.42
39487;BME280;25173;50.430;18.926;2023-02-03T05:06:16;98622.78;;;4.00;59.55
39487;BME280;25173;50.430;18.926;2023-02-03T05:09:16;98614.13;;;3.98;59.70
39487;BME280;25173;50.430;18.926;2023-02-03T05:12:17;98601.84;;;4.02;59.61
39487;BME280;25173;50.430;18.926;2023-02-03T05:15:17;98595.41;;;4.03;59.66
39487;BME280;25173;50.430;18.926;2023-02-03T05:18:18;98593.94;;;4.07;59.79
39487;BME280;25173;50.430;18.926;2023-02-03T05:21:19;98587.03;;;4.11;59.80
39487;BME280;25173;50.430;18.926;2023-02-03T05:24:20;98593.63;;;4.15;59.53
39487;BME280;25173;50.430;18.926;2023-02-03T05:27:20;98582.84;;;4.15;59.70
39487;BME280;25173;50.430;18.926;2023-02-03T05:30:21;98567.75;;;4.14;59.54
39487;BME280;25173;50.430;18.926;2023-02-03T05:33:22;98572.31;;;4.14;59.52
39487;BME280;25173;50.430;18.926;2023-02-03T05:36:22;98576.03;;;4.13;59.69
39487;BME280;25173;50.430;18.926;2023-02-03T05:39:24;98577.44;;;4.15;59.51
39487;BME280;25173;50.430;18.926;2023-02-03T05:42:24;98576.66;;;4.15;59.77
39487;BME280;25173;50.430;18.926;2023-02-03T05:45:25;98568.78;;;4.13;59.66
39487;BME280;25173;50.430;18.926;2023-02-03T05:48:26;98559.47;;;4.09;59.84
39487;BME280;25173;50.430;18.926;2023-02-03T05:51:26;98550.50;;;4.15;59.97
39487;BME280;25173;50.430;18.926;2023-02-03T05:54:27;98554.41;;;4.19;59.79
39487;BME280;25173;50.430;18.926;2023-02-03T05:57:28;98543.16;;;4.22;59.85
39487;BME280;25173;50.430;18.926;2023-02-03T06:00:29;98539.00;;;4.26;59.79
39487;BME280;25173;50.430;18.926;2023-02-03T06:03:30;98548.88;;;4.33;59.73
39487;BME280;25173;50.430;18.926;2023-02-03T06:06:31;98551.56;;;4.33;59.66
39487;BME280;25173;50.430;18.926;2023-02-03T06:09:34;98535.53;;;4.38;59.87
39487;BME280;25173;50.430;18.926;2023-02-03T06:12:39;98528.66;;;4.42;59.52
39487;BME280;25173;50.430;18.926;2023-02-03T06:15:40;98517.88;;;4.42;59.64
39487;BME280;25173;50.430;18.926;2023-02-03T06:18:40;98525.50;;;4.45;59.47
39487;BME280;25173;50.430;18.926;2023-02-03T06:21:41;98534.41;;;4.45;59.50
39487;BME280;25173;50.430;18.926;2023-02-03T06:24:42;98522.56;;;4.46;59.45
39487;BME280;25173;50.430;18.926;2023-02-03T06:27:44;98521.53;;;4.47;59.27
39487;BME280;25173;50.430;18.926;2023-02-03T06:30:44;98514.41;;;4.53;59.19
39487;BME280;25173;50.430;18.926;2023-02-03T06:33:48;98512.31;;;4.55;59.17
39487;BME280;25173;50.430;18.926;2023-02-03T06:36:49;98501.66;;;4.60;58.95
39487;BME280;25173;50.430;18.926;2023-02-03T06:39:49;98493.44;;;4.55;58.79
39487;BME280;25173;50.430;18.926;2023-02-03T06:42:50;98492.97;;;4.58;58.72
39487;BME280;25173;50.430;18.926;2023-02-03T06:45:51;98495.69;;;4.58;58.62
39487;BME280;25173;50.430;18.926;2023-02-03T06:48:52;98490.63;;;4.61;58.64
39487;BME280;25173;50.430;18.926;2023-02-03T06:51:52;98486.06;;;4.62;58.47
39487;BME280;25173;50.430;18.926;2023-02-03T06:54:53;98469.44;;;4.65;58.12
39487;BME280;25173;50.430;18.926;2023-02-03T06:57:53;98470.00;;;4.67;58.15
39487;BME280;25173;50.430;18.926;2023-02-03T07:00:55;98472.28;;;4.70;57.88
39487;BME280;25173;50.430;18.926;2023-02-03T07:03:56;98463.34;;;4.69;57.69
39487;BME280;25173;50.430;18.926;2023-02-03T07:06:58;98453.81;;;4.67;57.71
39487;BME280;25173;50.430;18.926;2023-02-03T07:10:02;98454.44;;;4.69;57.49
39487;BME280;25173;50.430;18.926;2023-02-03T07:13:04;98438.25;;;4.69;57.34
39487;BME280;25173;50.430;18.926;2023-02-03T07:16:05;98437.78;;;4.72;57.25
39487;BME280;25173;50.430;18.926;2023-02-03T07:19:06;98435.22;;;4.77;56.85
39487;BME280;25173;50.430;18.926;2023-02-03T07:22:09;98424.91;;;4.74;56.67
39487;BME280;25173;50.430;18.926;2023-02-03T07:25:10;98429.09;;;4.70;56.91
39487;BME280;25173;50.430;18.926;2023-02-03T07:28:10;98419.03;;;4.77;56.81
39487;BME280;25173;50.430;18.926;2023-02-03T07:31:11;98425.03;;;4.79;56.79
39487;BME280;25173;50.430;18.926;2023-02-03T07:34:12;98419.25;;;4.76;56.41
39487;BME280;25173;50.430;18.926;2023-02-03T07:37:12;98410.50;;;4.80;56.61
39487;BME280;25173;50.430;18.926;2023-02-03T07:40:13;98410.72;;;4.90;56.52
39487;BME280;25173;50.430;18.926;2023-02-03T07:43:14;98409.09;;;4.89;56.44
39487;BME280;25173;50.430;18.926;2023-02-03T07:46:15;98400.09;;;4.95;56.38
39487;BME280;25173;50.430;18.926;2023-02-03T07:49:15;98396.34;;;4.96;56.13
39487;BME280;25173;50.430;18.926;2023-02-03T07:52:16;98388.09;;;4.91;56.01
39487;BME280;25173;50.430;18.926;2023-02-03T07:55:17;98385.41;;;4.91;56.32
39487;BME280;25173;50.430;18.926;2023-02-03T07:58:18;98382.97;;;5.01;56.45
39487;BME280;25173;50.430;18.926;2023-02-03T08:01:18;98376.25;;;5.04;56.10
39487;BME280;25173;50.430;18.926;2023-02-03T08:04:19;98372.38;;;5.00;55.88
39487;BME280;25173;50.430;18.926;2023-02-03T08:07:20;98363.00;;;5.02;56.21
39487;BME280;25173;50.430;18.926;2023-02-03T08:10:21;98353.63;;;5.17;56.22
39487;BME280;25173;50.430;18.926;2023-02-03T08:13:21;98352.47;;;5.24;56.02
39487;BME280;25173;50.430;18.926;2023-02-03T08:16:22;98353.50;;;5.23;55.57
39487;BME280;25173;50.430;18.926;2023-02-03T08:19:23;98352.34;;;5.31;55.97
39487;BME280;25173;50.430;18.926;2023-02-03T08:22:23;98344.69;;;5.28;55.68
39487;BME280;25173;50.430;18.926;2023-02-03T08:25:24;98344.34;;;5.24;55.49
39487;BME280;25173;50.430;18.926;2023-02-03T08:28:25;98332.50;;;5.14;55.52
39487;BME280;25173;50.430;18.926;2023-02-03T08:31:26;98331.09;;;5.23;56.07
39487;BME280;25173;50.430;18.926;2023-02-03T08:34:27;98311.09;;;5.35;55.93
39487;BME280;25173;50.430;18.926;2023-02-03T08:37:27;98312.84;;;5.41;55.81
39487;BME280;25173;50.430;18.926;2023-02-03T08:40:31;98311.56;;;5.44;56.04
39487;BME280;25173;50.430;18.926;2023-02-03T08:43:31;98299.81;;;5.50;55.93
39487;BME280;25173;50.430;18.926;2023-02-03T08:46:32;98297.25;;;5.43;56.37
39487;BME280;25173;50.430;18.926;2023-02-03T08:49:34;98308.91;;;5.32;56.60
39487;BME280;25173;50.430;18.926;2023-02-03T08:52:35;98295.06;;;5.17;57.26
39487;BME280;25173;50.430;18.926;2023-02-03T08:55:39;98305.16;;;5.10;57.96
39487;BME280;25173;50.430;18.926;2023-02-03T08:58:39;98293.91;;;5.01;58.67
39487;BME280;25173;50.430;18.926;2023-02-03T09:01:41;98284.97;;;5.01;59.28
39487;BME280;25173;50.430;18.926;2023-02-03T09:04:46;98280.03;;;5.10;59.58
39487;BME280;25173;50.430;18.926;2023-02-03T09:07:48;98273.22;;;5.19;59.95
39487;BME280;25173;50.430;18.926;2023-02-03T09:10:49;98266.16;;;5.29;60.34
39487;BME280;25173;50.430;18.926;2023-02-03T09:13:49;98258.50;;;5.38;60.45
39487;BME280;25173;50.430;18.926;2023-02-03T09:16:50;98255.09;;;5.42;60.63
39487;BME280;25173;50.430;18.926;2023-02-03T09:19:51;98240.88;;;5.47;60.69
39487;BME280;25173;50.430;18.926;2023-02-03T09:22:52;98229.59;;;5.50;60.88
39487;BME280;25173;50.430;18.926;2023-02-03T09:25:54;98226.19;;;5.55;60.98
39487;BME280;25173;50.430;18.926;2023-02-03T09:28:55;98223.22;;;5.56;60.90
39487;BME280;25173;50.430;18.926;2023-02-03T09:31:56;98210.69;;;5.50;61.13
39487;BME280;25173;50.430;18.926;2023-02-03T09:34:57;98194.97;;;5.47;61.47
39487;BME280;25173;50.430;18.926;2023-02-03T09:37:58;98181.13;;;5.43;61.79
39487;BME280;25173;50.430;18.926;2023-02-03T09:41:11;98170.81;;;5.40;61.93
39487;BME280;25173;50.430;18.926;2023-02-03T09:47:39;98139.59;;;5.33;62.47
39487;BME280;25173;50.430;18.926;2023-02-03T09:50:42;98126.81;;;5.28;62.55
39487;BME280;25173;50.430;18.926;2023-02-03T09:53:48;98117.13;;;5.16;62.89
39487;BME280;25173;50.430;18.926;2023-02-03T09:56:52;98111.97;;;5.14;63.40
39487;BME280;25173;50.430;18.926;2023-02-03T09:59:57;98094.78;;;5.20;63.57
39487;BME280;25173;50.430;18.926;2023-02-03T10:03:08;98075.66;;;5.22;63.83
39487;BME280;25173;50.430;18.926;2023-02-03T10:09:48;98058.59;;;5.33;63.93
39487;BME280;25173;50.430;18.926;2023-02-03T10:19:44;98031.59;;;5.33;63.99
39487;BME280;25173;50.430;18.926;2023-02-03T10:22:56;98034.84;;;5.35;64.44
39487;BME280;25173;50.430;18.926;2023-02-03T10:26:01;98016.63;;;5.25;64.36
39487;BME280;25173;50.430;18.926;2023-02-03T10:29:22;98010.00;;;5.33;64.79
39487;BME280;25173;50.430;18.926;2023-02-03T10:32:26;97988.13;;;5.34;64.62
39487;BME280;25173;50.430;18.926;2023-02-03T10:35:35;97977.34;;;5.34;64.70
39487;BME280;25173;50.430;18.926;2023-02-03T10:42:03;97967.03;;;5.31;64.83
39487;BME280;25173;50.430;18.926;2023-02-03T10:45:09;97954.25;;;5.27;64.93
39487;BME280;25173;50.430;18.926;2023-02-03T10:48:12;97949.53;;;5.17;66.84
39487;BME280;25173;50.430;18.926;2023-02-03T10:51:57;97934.31;;;5.11;65.82
39487;BME280;25173;50.430;18.926;2023-02-03T10:54:57;97920.56;;;5.13;65.71
39487;BME280;25173;50.430;18.926;2023-02-03T10:58:05;97910.34;;;5.15;66.03
39487;BME280;25173;50.430;18.926;2023-02-03T11:01:12;97899.59;;;5.20;65.86
39487;BME280;25173;50.430;18.926;2023-02-03T11:07:29;97877.34;;;5.29;65.68
39487;BME280;25173;50.430;18.926;2023-02-03T11:10:36;97861.91;;;5.25;65.88
39487;BME280;25173;50.430;18.926;2023-02-03T11:13:39;97851.94;;;5.25;65.95
39487;BME280;25173;50.430;18.926;2023-02-03T11:16:40;97848.31;;;5.20;66.04
39487;BME280;25173;50.430;18.926;2023-02-03T11:19:44;97839.91;;;5.16;66.05
39487;BME280;25173;50.430;18.926;2023-02-03T11:22:47;97815.56;;;5.11;66.48
39487;BME280;25173;50.430;18.926;2023-02-03T11:25:48;97810.94;;;5.12;66.50
39487;BME280;25173;50.430;18.926;2023-02-03T11:28:50;97792.16;;;5.00;66.68
39487;BME280;25173;50.430;18.926;2023-02-03T11:31:53;97784.97;;;5.05;67.03
39487;BME280;25173;50.430;18.926;2023-02-03T11:35:01;97779.97;;;5.14;67.08
39487;BME280;25173;50.430;18.926;2023-02-03T11:38:02;97774.81;;;5.13;67.08
39487;BME280;25173;50.430;18.926;2023-02-03T11:41:03;97763.19;;;5.12;67.06
39487;BME280;25173;50.430;18.926;2023-02-03T11:44:19;97755.91;;;5.13;67.29
39487;BME280;25173;50.430;18.926;2023-02-03T11:47:20;97742.94;;;5.10;67.32
39487;BME280;25173;50.430;18.926;2023-02-03T11:50:47;97725.91;;;5.09;67.85
39487;BME280;25173;50.430;18.926;2023-02-03T12:00:47;97687.31;;;5.08;68.39
39487;BME280;25173;50.430;18.926;2023-02-03T12:20:05;97641.09;;;5.27;68.29
39487;BME280;25173;50.430;18.926;2023-02-03T12:23:29;97642.72;;;5.28;68.22
39487;BME280;25173;50.430;18.926;2023-02-03T12:29:55;97617.13;;;5.30;68.22
39487;BME280;25173;50.430;18.926;2023-02-03T12:33:00;97609.59;;;5.32;68.56
39487;BME280;25173;50.430;18.926;2023-02-03T12:36:10;97591.22;;;5.34;68.59
39487;BME280;25173;50.430;18.926;2023-02-03T12:39:15;97592.50;;;5.27;68.62
39487;BME280;25173;50.430;18.926;2023-02-03T12:42:20;97578.25;;;5.31;68.79
39487;BME280;25173;50.430;18.926;2023-02-03T12:45:28;97576.66;;;5.35;68.75
39487;BME280;25173;50.430;18.926;2023-02-03T13:01:28;97534.72;;;5.23;69.19
39487;BME280;25173;50.430;18.926;2023-02-03T13:04:53;97532.06;;;5.28;69.45
39487;BME280;25173;50.430;18.926;2023-02-03T13:08:10;97508.56;;;5.28;69.12
39487;BME280;25173;50.430;18.926;2023-02-03T13:11:27;97493.13;;;5.19;69.11
39487;BME280;25173;50.430;18.926;2023-02-03T13:14:40;97486.31;;;5.11;69.47
39487;BME280;25173;50.430;18.926;2023-02-03T13:20:47;97470.41;;;4.88;69.49
39487;BME280;25173;50.430;18.926;2023-02-03T13:23:48;97444.19;;;4.83;69.94
39487;BME280;25173;50.430;18.926;2023-02-03T13:33:45;97418.09;;;4.89;70.33
39487;BME280;25173;50.430;18.926;2023-02-03T13:37:15;97412.38;;;4.85;70.31
39487;BME280;25173;50.430;18.926;2023-02-03T13:40:33;97405.38;;;4.89;70.38
39487;BME280;25173;50.430;18.926;2023-02-03T13:43:42;97400.53;;;4.86;70.42
39487;BME280;25173;50.430;18.926;2023-02-03T13:46:47;97388.34;;;4.84;70.52
39487;BME280;25173;50.430;18.926;2023-02-03T13:49:57;97405.34;;;4.84;70.76
39487;BME280;25173;50.430;18.926;2023-02-03T13:53:05;97381.53;;;4.76;70.94
39487;BME280;25173;50.430;18.926;2023-02-03T13:56:23;97362.66;;;4.76;71.28
39487;BME280;25173;50.430;18.926;2023-02-03T14:02:43;97343.28;;;4.79;71.32
39487;BME280;25173;50.430;18.926;2023-02-03T14:05:46;97340.84;;;4.78;71.42
39487;BME280;25173;50.430;18.926;2023-02-03T14:08:48;97335.16;;;4.74;71.46
39487;BME280;25173;50.430;18.926;2023-02-03T14:18:43;97310.06;;;4.74;71.87
39487;BME280;25173;50.430;18.926;2023-02-03T14:21:48;97307.66;;;4.77;72.14
39487;BME280;25173;50.430;18.926;2023-02-03T14:24:51;97295.81;;;4.78;72.14
39487;BME280;25173;50.430;18.926;2023-02-03T14:28:04;97292.59;;;4.81;72.40
39487;BME280;25173;50.430;18.926;2023-02-03T14:31:09;97292.63;;;4.86;72.22
39487;BME280;25173;50.430;18.926;2023-02-03T14:34:12;97299.09;;;4.85;72.46
39487;BME280;25173;50.430;18.926;2023-02-03T14:37:28;97279.72;;;4.93;72.88
39487;BME280;25173;50.430;18.926;2023-02-03T14:40:38;97268.97;;;4.98;72.37
39487;BME280;25173;50.430;18.926;2023-02-03T14:44:00;97279.22;;;4.96;72.63
39487;BME280;25173;50.430;18.926;2023-02-03T14:47:13;97313.50;;;5.01;72.51
39487;BME280;25173;50.430;18.926;2023-02-03T14:50:27;97315.38;;;4.95;72.61
39487;BME280;25173;50.430;18.926;2023-02-03T14:57:03;97307.75;;;4.87;73.17
39487;BME280;25173;50.430;18.926;2023-02-03T15:03:22;97341.69;;;4.83;73.60
39487;BME280;25173;50.430;18.926;2023-02-03T15:06:45;97325.72;;;4.77;74.14
39487;BME280;25173;50.430;18.926;2023-02-03T15:09:48;97303.28;;;4.71;74.57
39487;BME280;25173;50.430;18.926;2023-02-03T15:12:53;97268.25;;;4.71;74.65
39487;BME280;25173;50.430;18.926;2023-02-03T15:16:03;97287.91;;;4.66;74.76
39487;BME280;25173;50.430;18.926;2023-02-03T15:19:17;97291.13;;;4.68;75.10
39487;BME280;25173;50.430;18.926;2023-02-03T15:25:21;97293.09;;;4.78;74.89
39487;BME280;25173;50.430;18.926;2023-02-03T15:28:26;97282.88;;;4.80;74.99
39487;BME280;25173;50.430;18.926;2023-02-03T15:31:39;97289.91;;;4.81;75.15
39487;BME280;25173;50.430;18.926;2023-02-03T15:34:46;97300.72;;;4.86;75.00
39487;BME280;25173;50.430;18.926;2023-02-03T15:37:53;97305.06;;;4.92;74.96
39487;BME280;25173;50.430;18.926;2023-02-03T15:40:55;97312.09;;;4.93;75.56
39487;BME280;25173;50.430;18.926;2023-02-03T15:44:01;97306.47;;;5.00;75.61
39487;BME280;25173;50.430;18.926;2023-02-03T15:47:18;97318.69;;;5.07;75.65
39487;BME280;25173;50.430;18.926;2023-02-03T15:50:28;97324.91;;;5.13;76.15
39487;BME280;25173;50.430;18.926;2023-02-03T15:53:32;97328.44;;;5.14;76.58
39487;BME280;25173;50.430;18.926;2023-02-03T15:56:43;97328.16;;;5.15;76.87
39487;BME280;25173;50.430;18.926;2023-02-03T15:59:54;97339.22;;;5.14;77.39
39487;BME280;25173;50.430;18.926;2023-02-03T16:02:57;97341.44;;;5.22;76.96
39487;BME280;25173;50.430;18.926;2023-02-03T16:06:26;97340.94;;;5.25;77.09
39487;BME280;25173;50.430;18.926;2023-02-03T16:09:38;97346.03;;;5.26;76.83
39487;BME280;25173;50.430;18.926;2023-02-03T16:12:50;97341.78;;;5.35;76.85
39487;BME280;25173;50.430;18.926;2023-02-03T16:19:31;97352.44;;;5.52;76.78
39487;BME280;25173;50.430;18.926;2023-02-03T16:22:42;97351.94;;;5.60;76.52
39487;BME280;25173;50.430;18.926;2023-02-03T16:26:21;97339.00;;;5.67;76.76
39487;BME280;25173;50.430;18.926;2023-02-03T16:29:28;97356.88;;;5.78;76.46
39487;BME280;25173;50.430;18.926;2023-02-03T16:33:14;97356.88;;;5.78;77.02
39487;BME280;25173;50.430;18.926;2023-02-03T16:36:39;97364.44;;;5.76;77.28
39487;BME280;25173;50.430;18.926;2023-02-03T16:40:04;97366.66;;;5.84;77.27
39487;BME280;25173;50.430;18.926;2023-02-03T16:43:24;97368.25;;;5.80;77.71
39487;BME280;25173;50.430;18.926;2023-02-03T16:46:44;97369.56;;;5.73;78.00
39487;BME280;25173;50.430;18.926;2023-02-03T16:50:05;97378.97;;;5.65;78.56
39487;BME280;25173;50.430;18.926;2023-02-03T16:53:30;97378.88;;;5.50;79.32
39487;BME280;25173;50.430;18.926;2023-02-03T16:56:31;97381.47;;;5.35;80.58
39487;BME280;25173;50.430;18.926;2023-02-03T16:59:35;97380.53;;;5.19;81.92
39487;BME280;25173;50.430;18.926;2023-02-03T17:02:36;97393.19;;;5.14;82.50
39487;BME280;25173;50.430;18.926;2023-02-03T17:05:38;97387.50;;;5.10;82.84
39487;BME280;25173;50.430;18.926;2023-02-03T17:08:39;97389.44;;;5.15;82.93
39487;BME280;25173;50.430;18.926;2023-02-03T17:11:40;97391.88;;;5.16;82.90
39487;BME280;25173;50.430;18.926;2023-02-03T17:14:41;97384.28;;;5.13;83.19
39487;BME280;25173;50.430;18.926;2023-02-03T17:17:42;97397.50;;;5.10;83.56
39487;BME280;25173;50.430;18.926;2023-02-03T17:20:43;97386.38;;;5.06;83.92
39487;BME280;25173;50.430;18.926;2023-02-03T17:23:45;97390.97;;;5.05;84.05
39487;BME280;25173;50.430;18.926;2023-02-03T17:26:45;97408.28;;;5.10;83.91
39487;BME280;25173;50.430;18.926;2023-02-03T17:29:46;97395.91;;;5.14;83.89
39487;BME280;25173;50.430;18.926;2023-02-03T17:32:46;97394.56;;;5.16;83.78
39487;BME280;25173;50.430;18.926;2023-02-03T17:35:59;97382.75;;;5.22;83.63
39487;BME280;25173;50.430;18.926;2023-02-03T17:39:00;97405.16;;;5.23;83.49
39487;BME280;25173;50.430;18.926;2023-02-03T17:42:00;97410.78;;;5.21;83.57
39487;BME280;25173;50.430;18.926;2023-02-03T17:45:01;97417.00;;;5.22;83.31
39487;BME280;25173;50.430;18.926;2023-02-03T17:48:02;97419.47;;;5.23;83.30
39487;BME280;25173;50.430;18.926;2023-02-03T17:51:06;97421.34;;;5.23;83.08
39487;BME280;25173;50.430;18.926;2023-02-03T17:54:06;97421.34;;;5.23;83.16
39487;BME280;25173;50.430;18.926;2023-02-03T17:57:07;97430.53;;;5.27;82.86
39487;BME280;25173;50.430;18.926;2023-02-03T18:00:08;97430.84;;;5.30;82.85
39487;BME280;25173;50.430;18.926;2023-02-03T18:03:12;97447.34;;;5.34;82.71
39487;BME280;25173;50.430;18.926;2023-02-03T18:06:15;97452.81;;;5.44;82.32
39487;BME280;25173;50.430;18.926;2023-02-03T18:09:15;97451.78;;;5.50;81.77
39487;BME280;25173;50.430;18.926;2023-02-03T18:12:16;97449.66;;;5.52;81.91
39487;BME280;25173;50.430;18.926;2023-02-03T18:15:17;97451.88;;;5.60;81.72